createdAt,value
2018-11-27T00:02:27.148Z,2.07
2018-11-27T00:05:00.739Z,0.77
2018-11-27T00:07:34.296Z,2.83
2018-11-27T00:10:09.515Z,1.60
2018-11-27T00:12:43.091Z,1.93
2018-11-27T00:15:16.702Z,1.57
2018-11-27T00:17:50.252Z,0.73
2018-11-27T00:20:23.908Z,0.87
2018-11-27T00:22:57.460Z,1.27
2018-11-27T00:25:31.049Z,1.93
2018-11-27T00:28:04.879Z,0.60
2018-11-27T00:30:38.478Z,0.40
2018-11-27T00:33:12.029Z,0.53
2018-11-27T00:35:45.629Z,1.77
2018-11-27T00:38:19.199Z,1.37
2018-11-27T00:40:52.898Z,2.20
2018-11-27T00:43:26.732Z,1.00
2018-11-27T00:46:00.355Z,1.37
2018-11-27T00:48:33.946Z,1.43
2018-11-27T00:51:07.641Z,1.50
2018-11-27T00:53:41.257Z,1.73
2018-11-27T00:56:14.870Z,1.43
2018-11-27T00:58:48.448Z,4.40
2018-11-27T01:01:22.103Z,1.70
2018-11-27T01:03:55.688Z,3.17
2018-11-27T01:06:29.311Z,1.73
2018-11-27T01:09:02.999Z,0.87
2018-11-27T01:11:36.727Z,1.13
2018-11-27T01:14:10.320Z,1.87
2018-11-27T01:16:43.983Z,1.27
2018-11-27T01:19:17.569Z,1.70
2018-11-27T01:21:51.153Z,1.03
2018-11-27T01:24:24.702Z,1.87
2018-11-27T01:26:58.320Z,0.73
2018-11-27T01:29:31.905Z,2.43
2018-11-27T01:32:05.671Z,1.80
2018-11-27T01:34:39.254Z,4.37
2018-11-27T01:37:12.897Z,1.13
2018-11-27T01:39:46.476Z,2.43
2018-11-27T01:42:20.080Z,1.80
2018-11-27T01:44:53.650Z,2.33
2018-11-27T01:47:27.284Z,3.33
2018-11-27T01:50:00.862Z,1.77
2018-11-27T01:52:34.443Z,2.10
2018-11-27T01:55:09.705Z,2.93
2018-11-27T01:57:43.412Z,1.73
2018-11-27T02:00:22.011Z,1.77
2018-11-27T02:02:56.135Z,3.20
2018-11-27T02:05:30.337Z,1.00
2018-11-27T02:08:03.980Z,2.33
2018-11-27T02:10:37.563Z,1.30
2018-11-27T02:13:11.550Z,1.47
2018-11-27T02:15:45.193Z,4.10
2018-11-27T02:18:18.839Z,2.37
2018-11-27T02:20:52.508Z,2.70
2018-11-27T02:23:26.131Z,1.63
2018-11-27T02:25:59.718Z,3.77
2018-11-27T02:28:33.308Z,2.37
2018-11-27T02:31:06.899Z,1.43
2018-11-27T02:33:40.564Z,0.90
2018-11-27T02:36:14.515Z,3.13
2018-11-27T02:38:48.182Z,3.20
2018-11-27T02:41:21.754Z,2.60
2018-11-27T02:43:55.402Z,1.33
2018-11-27T02:46:28.973Z,3.77
2018-11-27T02:49:02.598Z,1.00
2018-11-27T02:51:36.145Z,2.60
2018-11-27T02:54:09.726Z,3.40
2018-11-27T02:56:43.349Z,3.80
2018-11-27T02:59:16.962Z,3.53
2018-11-27T03:01:50.741Z,4.40
2018-11-27T03:04:24.342Z,5.80
2018-11-27T03:06:57.926Z,1.90
2018-11-27T03:09:31.507Z,1.10
2018-11-27T03:12:05.163Z,4.23
2018-11-27T03:14:38.758Z,5.50
2018-11-27T03:17:12.345Z,2.10
2018-11-27T03:19:45.964Z,2.70
2018-11-27T03:22:19.547Z,3.60
2018-11-27T03:24:53.144Z,2.40
2018-11-27T03:27:26.778Z,3.60
2018-11-27T03:30:00.394Z,3.63
2018-11-27T03:32:33.974Z,1.53
2018-11-27T03:35:10.014Z,1.57
2018-11-27T03:37:43.762Z,1.27
2018-11-27T03:40:18.510Z,1.47
2018-11-27T03:42:52.273Z,2.30
2018-11-27T03:45:26.537Z,3.03
2018-11-27T03:48:00.111Z,4.10
2018-11-27T03:50:34.262Z,1.70
2018-11-27T03:53:07.857Z,1.40
2018-11-27T03:55:41.460Z,1.13
2018-11-27T03:58:15.014Z,1.60
2018-11-27T04:00:48.641Z,3.53
2018-11-27T04:03:22.237Z,0.93
2018-11-27T04:05:55.921Z,1.00
2018-11-27T04:08:29.496Z,5.10
2018-11-27T04:11:03.077Z,1.50
2018-11-27T04:13:36.633Z,1.50
2018-11-27T04:16:10.306Z,5.70
2018-11-27T04:18:43.952Z,3.30
2018-11-27T04:21:17.577Z,1.77
2018-11-27T04:23:51.930Z,2.10
2018-11-27T04:26:25.580Z,1.70
2018-11-27T04:28:59.174Z,1.50
2018-11-27T04:31:32.812Z,2.50
2018-11-27T04:34:06.425Z,1.03
2018-11-27T04:36:40.035Z,4.20
2018-11-27T04:39:17.622Z,4.07
2018-11-27T04:41:51.217Z,2.47
2018-11-27T04:44:24.835Z,1.80
2018-11-27T04:46:58.465Z,1.00
2018-11-27T04:49:32.031Z,2.23
2018-11-27T04:52:06.610Z,2.93
2018-11-27T04:54:40.201Z,4.07
2018-11-27T04:57:13.804Z,2.97
2018-11-27T04:59:47.397Z,1.13
2018-11-27T05:02:20.963Z,1.30
2018-11-27T05:04:54.533Z,1.90
2018-11-27T05:07:28.169Z,1.20
2018-11-27T05:10:01.776Z,1.20
2018-11-27T05:12:35.389Z,1.40
2018-11-27T05:15:13.207Z,1.80
2018-11-27T05:17:48.355Z,2.53
2018-11-27T05:20:21.573Z,2.63
2018-11-27T05:22:55.233Z,2.43
2018-11-27T05:25:29.241Z,3.37
2018-11-27T05:28:02.848Z,2.17
2018-11-27T05:30:36.850Z,1.87
2018-11-27T05:33:10.478Z,1.73
2018-11-27T05:35:44.053Z,1.73
2018-11-27T05:38:17.697Z,2.77
2018-11-27T05:40:52.128Z,1.63
2018-11-27T05:43:25.722Z,1.10
2018-11-27T05:45:59.331Z,2.80
2018-11-27T05:48:32.902Z,2.40
2018-11-27T05:51:07.271Z,4.20
2018-11-27T05:53:40.854Z,2.23
2018-11-27T05:56:14.507Z,8.33
2018-11-27T05:58:48.099Z,3.17
2018-11-27T06:01:21.731Z,2.30
2018-11-27T06:03:55.303Z,6.80
2018-11-27T06:06:28.865Z,4.87
2018-11-27T06:09:02.544Z,1.57
2018-11-27T06:11:36.111Z,2.00
2018-11-27T06:14:09.738Z,2.57
2018-11-27T06:16:43.338Z,2.57
2018-11-27T06:19:16.952Z,2.03
2018-11-27T06:21:50.551Z,1.87
2018-11-27T06:24:24.138Z,2.43
2018-11-27T06:26:58.071Z,3.40
2018-11-27T06:29:31.971Z,2.73
2018-11-27T06:32:05.582Z,2.47
2018-11-27T06:34:39.258Z,3.83
2018-11-27T06:37:12.858Z,2.57
2018-11-27T06:39:46.451Z,2.90
2018-11-27T06:42:20.015Z,2.83
2018-11-27T06:44:53.626Z,4.37
2018-11-27T06:47:27.178Z,2.37
2018-11-27T06:50:00.803Z,1.63
2018-11-27T06:52:34.561Z,2.50
2018-11-27T06:55:11.398Z,1.53
2018-11-27T06:57:45.007Z,3.30
2018-11-27T07:00:23.829Z,1.80
2018-11-27T07:02:58.746Z,4.43
2018-11-27T07:05:32.340Z,3.33
2018-11-27T07:08:07.334Z,3.97
2018-11-27T07:10:43.180Z,1.47
2018-11-27T07:13:19.069Z,1.30
2018-11-27T07:15:52.949Z,1.90
2018-11-27T07:18:26.556Z,2.57
2018-11-27T07:21:00.260Z,2.53
2018-11-27T07:23:33.915Z,3.53
2018-11-27T07:26:07.548Z,7.30
2018-11-27T07:28:41.123Z,8.67
2018-11-27T07:31:14.740Z,8.90
2018-11-27T07:33:48.557Z,5.63
2018-11-27T07:36:22.170Z,2.57
2018-11-27T07:38:56.391Z,3.83
2018-11-27T07:41:29.984Z,4.63
2018-11-27T07:44:03.864Z,4.47
2018-11-27T07:46:37.489Z,5.97
2018-11-27T07:49:11.053Z,4.27
2018-11-27T07:51:44.659Z,2.83
2018-11-27T07:54:18.252Z,2.43
2018-11-27T07:56:51.856Z,4.50
2018-11-27T07:59:25.396Z,3.70
2018-11-27T08:01:59.019Z,4.03
2018-11-27T08:04:32.570Z,6.40
2018-11-27T08:07:06.803Z,2.93
2018-11-27T08:09:40.358Z,2.93
2018-11-27T08:12:13.985Z,4.83
2018-11-27T08:14:47.567Z,2.73
2018-11-27T08:17:21.175Z,2.20
2018-11-27T08:19:54.735Z,4.93
2018-11-27T08:22:28.377Z,3.20
2018-11-27T08:25:01.984Z,4.97
2018-11-27T08:27:35.616Z,4.00
2018-11-27T08:30:14.134Z,7.97
2018-11-27T08:32:47.838Z,4.57
2018-11-27T08:35:26.266Z,4.33
2018-11-27T08:38:01.373Z,6.23
2018-11-27T08:40:35.326Z,4.67
2018-11-27T08:43:09.013Z,6.57
2018-11-27T08:45:42.596Z,8.93
2018-11-27T08:48:16.206Z,9.03
2018-11-27T08:50:49.778Z,5.20
2018-11-27T08:53:23.409Z,4.90
2018-11-27T08:55:56.963Z,4.90
2018-11-27T08:58:30.570Z,11.10
2018-11-27T09:01:04.170Z,5.93
2018-11-27T09:03:37.779Z,8.10
2018-11-27T09:06:11.420Z,4.53
2018-11-27T09:08:45.010Z,4.73
2018-11-27T09:11:18.646Z,4.70
2018-11-27T09:13:52.279Z,3.40
2018-11-27T09:16:25.883Z,5.33
2018-11-27T09:18:59.465Z,5.33
2018-11-27T09:21:33.052Z,4.27
2018-11-27T09:24:06.688Z,4.83
2018-11-27T09:26:40.298Z,3.27
2018-11-27T09:29:13.885Z,4.37
2018-11-27T09:31:47.454Z,3.90
2018-11-27T09:34:21.978Z,4.63
2018-11-27T09:36:55.547Z,6.83
2018-11-27T09:39:29.159Z,5.63
2018-11-27T09:42:02.750Z,4.77
2018-11-27T09:44:36.334Z,3.90
2018-11-27T09:47:09.927Z,4.17
2018-11-27T09:49:43.590Z,5.00
2018-11-27T09:52:17.184Z,6.23
2018-11-27T09:54:50.801Z,5.77
2018-11-27T09:57:25.095Z,3.53
2018-11-27T09:59:58.750Z,6.00
2018-11-27T10:02:32.329Z,5.20
2018-11-27T10:05:06.688Z,5.07
2018-11-27T10:07:40.263Z,5.67
2018-11-27T10:10:15.218Z,6.47
2018-11-27T10:12:48.797Z,2.57
2018-11-27T10:15:26.458Z,3.37
2018-11-27T10:18:01.097Z,5.07
2018-11-27T10:20:37.197Z,5.07
2018-11-27T10:23:15.209Z,6.93
2018-11-27T10:25:48.877Z,4.00
2018-11-27T10:28:22.439Z,2.90
2018-11-27T10:30:56.055Z,3.93
2018-11-27T10:33:29.830Z,5.80
2018-11-27T10:36:03.472Z,2.50
2018-11-27T10:38:37.060Z,2.60
2018-11-27T10:41:10.650Z,4.03
2018-11-27T10:43:44.256Z,5.10
2018-11-27T10:46:18.365Z,4.93
2018-11-27T10:48:51.942Z,2.73
2018-11-27T10:51:25.520Z,2.77
2018-11-27T10:53:59.091Z,7.77
2018-11-27T10:56:32.752Z,7.03
2018-11-27T10:59:06.561Z,3.43
2018-11-27T11:01:45.447Z,5.57
2018-11-27T11:04:19.015Z,4.20
2018-11-27T11:06:52.639Z,4.23
2018-11-27T11:09:26.213Z,3.87
2018-11-27T11:11:59.854Z,3.63
2018-11-27T11:14:33.437Z,3.83
2018-11-27T11:17:07.060Z,6.80
2018-11-27T11:19:40.620Z,3.37
2018-11-27T11:22:14.231Z,4.87
2018-11-27T11:24:47.840Z,4.53
2018-11-27T11:27:21.488Z,4.83
2018-11-27T11:29:55.949Z,3.83
2018-11-27T11:32:29.564Z,4.57
2018-11-27T11:35:03.152Z,3.53
2018-11-27T11:37:36.765Z,5.77
2018-11-27T11:40:13.053Z,2.30
2018-11-27T11:42:47.305Z,4.87
2018-11-27T11:45:20.990Z,3.60
2018-11-27T11:47:54.614Z,5.77
2018-11-27T11:50:30.050Z,3.33
2018-11-27T11:53:14.736Z,4.97
2018-11-27T11:55:48.801Z,4.53
2018-11-27T11:58:22.418Z,2.77
2018-11-27T12:00:56.932Z,4.90
2018-11-27T12:03:30.536Z,3.17
2018-11-27T12:06:04.149Z,4.27
2018-11-27T12:08:37.746Z,2.57
2018-11-27T12:11:11.335Z,4.87
2018-11-27T12:13:44.996Z,6.03
2018-11-27T12:16:18.594Z,3.33
2018-11-27T12:18:52.241Z,2.43
2018-11-27T12:21:25.835Z,2.53
2018-11-27T12:23:59.443Z,3.13
2018-11-27T12:26:33.074Z,4.53
2018-11-27T12:29:07.051Z,2.50
2018-11-27T12:31:41.368Z,3.83
2018-11-27T12:34:14.980Z,3.13
2018-11-27T12:36:48.537Z,3.47
2018-11-27T12:39:22.131Z,3.93
2018-11-27T12:41:55.756Z,6.23
2018-11-27T12:44:29.695Z,5.90
2018-11-27T12:47:03.260Z,7.53
2018-11-27T12:49:36.868Z,4.40
2018-11-27T12:52:10.461Z,3.20
2018-11-27T12:54:44.094Z,4.13
2018-11-27T12:57:17.681Z,3.63
2018-11-27T12:59:51.268Z,6.77
2018-11-27T13:02:24.839Z,3.60
2018-11-27T13:04:58.419Z,3.00
2018-11-27T13:07:31.956Z,2.50
2018-11-27T13:10:09.019Z,4.00
2018-11-27T13:12:43.551Z,4.13
2018-11-27T13:15:20.195Z,4.97
2018-11-27T13:17:54.145Z,4.13
2018-11-27T13:20:27.758Z,5.80
2018-11-27T13:23:01.340Z,4.83
2018-11-27T13:25:35.142Z,5.60
2018-11-27T13:28:10.031Z,5.33
2018-11-27T13:30:54.587Z,3.80
2018-11-27T13:33:36.497Z,5.13
2018-11-27T13:36:10.179Z,5.83
2018-11-27T13:38:43.773Z,3.40
2018-11-27T13:41:17.382Z,3.43
2018-11-27T13:43:50.937Z,4.27
2018-11-27T13:46:24.537Z,7.27
2018-11-27T13:48:58.186Z,3.90
2018-11-27T13:51:31.844Z,8.10
2018-11-27T13:54:05.593Z,9.40
2018-11-27T13:56:39.234Z,5.97
2018-11-27T13:59:12.779Z,9.40
2018-11-27T14:01:46.456Z,5.93
2018-11-27T14:04:20.002Z,3.83
2018-11-27T14:06:53.653Z,5.73
2018-11-27T14:09:27.254Z,5.63
2018-11-27T14:12:00.926Z,9.50
2018-11-27T14:14:34.534Z,5.70
2018-11-27T14:17:08.186Z,3.93
2018-11-27T14:19:41.777Z,3.10
2018-11-27T14:22:15.538Z,7.17
2018-11-27T14:24:49.155Z,4.63
2018-11-27T14:27:22.827Z,4.97
2018-11-27T14:29:56.406Z,9.33
2018-11-27T14:32:30.018Z,8.10
2018-11-27T14:35:03.640Z,6.40
2018-11-27T14:37:37.280Z,5.70
2018-11-27T14:40:19.098Z,5.83
2018-11-27T14:42:52.734Z,4.03
2018-11-27T14:45:27.248Z,4.43
2018-11-27T14:48:01.102Z,6.03
2018-11-27T14:50:34.770Z,3.80
2018-11-27T14:53:08.378Z,4.63
2018-11-27T14:55:41.933Z,4.73
2018-11-27T14:58:15.577Z,4.00
2018-11-27T15:00:49.162Z,5.37
2018-11-27T15:03:23.455Z,3.73
2018-11-27T15:05:57.035Z,4.20
2018-11-27T15:08:30.681Z,4.23
2018-11-27T15:11:04.308Z,4.50
2018-11-27T15:13:37.894Z,4.43
2018-11-27T15:16:11.484Z,5.80
2018-11-27T15:18:45.079Z,8.23
2018-11-27T15:21:18.659Z,7.17
2018-11-27T15:23:52.465Z,7.80
2018-11-27T15:26:26.019Z,7.13
2018-11-27T15:28:59.711Z,5.83
2018-11-27T15:31:33.341Z,9.00
2018-11-27T15:34:07.170Z,6.13
2018-11-27T15:36:40.741Z,5.00
2018-11-27T15:39:14.307Z,6.63
2018-11-27T15:41:47.881Z,10.37
2018-11-27T15:44:21.480Z,6.03
2018-11-27T15:46:56.774Z,4.67
2018-11-27T15:49:30.360Z,3.97
2018-11-27T15:52:03.931Z,4.03
2018-11-27T15:54:37.504Z,5.80
2018-11-27T15:57:11.032Z,4.93
2018-11-27T15:59:44.632Z,2.70
2018-11-27T16:02:18.212Z,4.03
2018-11-27T16:04:51.842Z,5.50
2018-11-27T16:07:25.412Z,5.13
2018-11-27T16:09:58.996Z,4.77
2018-11-27T16:12:32.973Z,6.23
2018-11-27T16:15:09.071Z,5.47
2018-11-27T16:17:42.970Z,4.53
2018-11-27T16:20:18.020Z,4.87
2018-11-27T16:22:52.825Z,4.27
2018-11-27T16:25:26.458Z,4.03
2018-11-27T16:28:00.039Z,5.23
2018-11-27T16:30:33.657Z,3.63
2018-11-27T16:33:07.559Z,6.93
2018-11-27T16:35:41.143Z,5.93
2018-11-27T16:38:14.710Z,6.27
2018-11-27T16:40:48.290Z,3.80
2018-11-27T16:43:21.874Z,5.50
2018-11-27T16:45:55.828Z,7.23
2018-11-27T16:48:29.389Z,5.50
2018-11-27T16:51:02.974Z,6.07
2018-11-27T16:53:36.625Z,10.17
2018-11-27T16:56:10.209Z,6.60
2018-11-27T16:58:43.790Z,5.50
2018-11-27T17:01:17.386Z,3.80
2018-11-27T17:03:50.968Z,4.80
2018-11-27T17:06:24.544Z,5.80
2018-11-27T17:08:58.101Z,2.60
2018-11-27T17:11:31.704Z,5.33
2018-11-27T17:14:05.523Z,5.53
2018-11-27T17:16:39.138Z,8.33
2018-11-27T17:19:12.718Z,5.10
2018-11-27T17:21:46.330Z,5.60
2018-11-27T17:24:20.889Z,8.67
2018-11-27T17:26:54.499Z,5.57
2018-11-27T17:29:28.124Z,5.60
2018-11-27T17:32:01.666Z,11.03
2018-11-27T17:34:35.261Z,4.77
2018-11-27T17:37:08.900Z,6.63
2018-11-27T17:39:42.466Z,25.17
2018-11-27T17:42:16.074Z,20.93
2018-11-27T17:44:49.761Z,11.53
2018-11-27T17:47:23.344Z,6.37
2018-11-27T17:49:56.932Z,6.13
2018-11-27T17:52:30.525Z,5.37
2018-11-27T17:55:04.880Z,4.70
2018-11-27T17:57:38.510Z,4.57
2018-11-27T18:00:13.937Z,5.57
2018-11-27T18:02:52.415Z,3.53
2018-11-27T18:05:26.041Z,4.43
2018-11-27T18:08:00.722Z,5.37
2018-11-27T18:10:33.296Z,5.67
2018-11-27T18:13:07.851Z,5.53
2018-11-27T18:15:41.484Z,4.57
2018-11-27T18:18:15.088Z,3.53
2018-11-27T18:20:48.661Z,3.70
2018-11-27T18:23:22.274Z,4.17
2018-11-27T18:25:55.842Z,4.20
2018-11-27T18:28:29.444Z,5.97
2018-11-27T18:31:03.016Z,4.77
2018-11-27T18:33:36.646Z,4.30
2018-11-27T18:36:10.284Z,8.53
2018-11-27T18:38:43.904Z,4.27
2018-11-27T18:41:17.493Z,4.67
2018-11-27T18:43:51.129Z,3.80
2018-11-27T18:46:24.706Z,4.70
2018-11-27T18:48:58.323Z,3.30
2018-11-27T18:51:31.904Z,4.43
2018-11-27T18:54:06.190Z,4.27
2018-11-27T18:56:39.719Z,4.97
2018-11-27T18:59:13.327Z,3.17
2018-11-27T19:01:46.891Z,2.60
2018-11-27T19:04:20.896Z,2.30
2018-11-27T19:06:54.620Z,1.33
2018-11-27T19:09:28.219Z,1.60
2018-11-27T19:12:01.845Z,1.27
2018-11-27T19:14:35.496Z,2.20
2018-11-27T19:17:09.189Z,1.40
2018-11-27T19:19:42.783Z,3.00
2018-11-27T19:22:16.433Z,1.57
2018-11-27T19:24:50.044Z,2.17
2018-11-27T19:27:23.766Z,4.37
2018-11-27T19:29:57.757Z,1.50
2018-11-27T19:32:31.349Z,3.10
2018-11-27T19:35:05.649Z,2.23
2018-11-27T19:37:39.351Z,2.40
2018-11-27T19:40:15.052Z,4.73
2018-11-27T19:42:48.733Z,2.57
2018-11-27T19:45:25.304Z,3.27
2018-11-27T19:47:58.907Z,1.53
2018-11-27T19:50:32.475Z,2.60
2018-11-27T19:53:12.029Z,2.30
2018-11-27T19:55:42.067Z,1.33
2018-11-27T19:58:15.713Z,1.97
2018-11-27T20:00:49.410Z,1.40
2018-11-27T20:03:23.123Z,1.03
2018-11-27T20:05:56.775Z,1.83
2018-11-27T20:08:30.507Z,1.30
2018-11-27T20:11:04.468Z,1.90
2018-11-27T20:13:38.107Z,1.93
2018-11-27T20:16:11.819Z,2.40
2018-11-27T20:18:45.441Z,2.67
2018-11-27T20:21:19.087Z,2.30
2018-11-27T20:23:52.929Z,1.23
2018-11-27T20:26:26.503Z,2.10
2018-11-27T20:29:00.563Z,2.43
2018-11-27T20:31:34.235Z,2.20
2018-11-27T20:34:08.554Z,2.30
2018-11-27T20:36:42.135Z,3.20
2018-11-27T20:39:15.802Z,1.13
2018-11-27T20:41:49.425Z,2.57
2018-11-27T20:44:23.064Z,2.73
2018-11-27T20:46:56.661Z,2.00
2018-11-27T20:49:30.392Z,1.97
2018-11-27T20:52:04.048Z,1.60
2018-11-27T20:54:37.683Z,1.47
2018-11-27T20:57:11.265Z,1.93
2018-11-27T20:59:44.874Z,2.00
2018-11-27T21:02:18.494Z,6.47
2018-11-27T21:04:52.228Z,3.33
2018-11-27T21:07:25.832Z,4.90
2018-11-27T21:09:59.487Z,2.80
2018-11-27T21:12:33.065Z,3.33
2018-11-27T21:15:09.402Z,2.10
2018-11-27T21:17:43.057Z,2.90
2018-11-27T21:20:17.783Z,2.90
2018-11-27T21:22:51.398Z,2.80
2018-11-27T21:25:25.753Z,2.40
2018-11-27T21:28:07.222Z,2.63
2018-11-27T21:30:40.816Z,3.60
2018-11-27T21:33:14.396Z,2.00
2018-11-27T21:35:48.002Z,5.73
2018-11-27T21:38:21.678Z,3.27
2018-11-27T21:40:55.262Z,2.00
2018-11-27T21:43:28.838Z,4.10
2018-11-27T21:46:02.437Z,1.80
2018-11-27T21:48:36.113Z,1.80
2018-11-27T21:51:09.773Z,3.13
2018-11-27T21:53:43.368Z,4.13
2018-11-27T21:56:16.947Z,3.43
2018-11-27T21:58:50.594Z,2.53
2018-11-27T22:01:24.213Z,2.60
2018-11-27T22:03:57.849Z,8.57
2018-11-27T22:06:31.487Z,2.67
2018-11-27T22:09:06.955Z,1.87
2018-11-27T22:11:40.572Z,4.53
2018-11-27T22:14:14.730Z,4.53
2018-11-27T22:16:48.612Z,2.93
2018-11-27T22:19:22.210Z,5.17
2018-11-27T22:21:56.184Z,4.37
2018-11-27T22:24:29.758Z,4.23
2018-11-27T22:27:03.353Z,3.87
2018-11-27T22:29:37.184Z,3.00
2018-11-27T22:32:10.820Z,3.90
2018-11-27T22:34:44.736Z,4.43
2018-11-27T22:37:18.444Z,3.73
2018-11-27T22:39:52.083Z,4.67
2018-11-27T22:42:25.712Z,7.43
2018-11-27T22:44:59.309Z,5.00
2018-11-27T22:47:32.893Z,4.67
2018-11-27T22:50:13.563Z,8.80
2018-11-27T22:52:47.561Z,4.73
2018-11-27T22:55:21.178Z,6.60
2018-11-27T22:57:54.805Z,6.97
2018-11-27T23:00:34.185Z,5.07
2018-11-27T23:03:08.645Z,8.63
2018-11-27T23:05:42.241Z,4.90
2018-11-27T23:08:15.914Z,4.97
2018-11-27T23:10:49.885Z,8.97
2018-11-27T23:13:23.465Z,5.87
2018-11-27T23:15:57.056Z,4.97
2018-11-27T23:18:30.679Z,5.37
2018-11-27T23:21:04.623Z,6.67
2018-11-27T23:23:38.223Z,5.77
2018-11-27T23:26:11.809Z,7.33
2018-11-27T23:28:45.404Z,6.27
2018-11-27T23:31:19.023Z,7.57
2018-11-27T23:33:52.701Z,5.90
2018-11-27T23:36:26.295Z,9.53
2018-11-27T23:38:59.901Z,8.03
2018-11-27T23:41:33.506Z,8.23
2018-11-27T23:44:07.130Z,6.27
2018-11-27T23:46:40.680Z,9.07
2018-11-27T23:49:14.271Z,8.70
2018-11-27T23:51:47.845Z,10.07
2018-11-27T23:54:21.468Z,9.13
2018-11-27T23:56:55.051Z,7.43
2018-11-27T23:59:28.645Z,7.37
